昆明 の空港の天気 - METARとTAF

昆明巫家餽国際空港 ( ZPPP / KMG ) - 中国 雲南省昆明市
飛行場実況気象(Metar)
観測時間05/25 11:00 CST (05/25 03:00 UTC)
風向・風速南西 10m/s
視程10km以上
天気現象
全天の4割程度の雲 雲底高度 790m
気温23℃
湿度53%
気圧1016hPa
METARZPPP 250300Z 22010MPS 9999 SCT026 23/13 Q1016 NOSIG
過去の天気等 Google飛行場航空写真 Wunderground天気予報

過去48時間のMETAR

飛行場予報(TAF)
発表時間: 5/25 03:06 CST (5/24 19:06 UTC)
予報対象時間: 25日8時 CST ~ 26日8時 CST
風向・風速南西 7m/s
視程10km以上
全天の4割程度の雲 雲底高度 790m
TAF ZPPP 241906Z 2500/2524 22007MPS 9999 SCT026 TX26/2508Z TN15/2500Z